Time;durP1;ratioP1;P1;durP2;ratioP2;P2;SDS_P1;SDS_P2;PMS_P1;PMS_P2;Temp;Humidity;BMP_temperature;BMP_pressure;BME280_temperature;BME280_humidity;BME280_pressure;Samples;Min_cycle;Max_cycle;Signal;HPM_P1;HPM_P2
2023/03/08 00:00:59;;;;;;;0.10;0.10;;;;;;;;;;5100439;28;20028;-76
2023/03/08 00:03:24;;;;;;;0.10;0.10;;;5.00;99.90;;;;;;5100711;28;20028;-76
2023/03/08 00:05:50;;;;;;;0.00;0.00;;;5.00;99.90;;;;;;5103957;28;20047;-76
2023/03/08 00:08:17;;;;;;;0.70;0.70;;;3.80;99.90;;;;;;5101861;28;20080;-76
2023/03/08 00:10:43;;;;;;;0.10;0.10;;;4.80;99.90;;;;;;5082059;28;20020;-76
2023/03/08 00:13:09;;;;;;;1.55;1.55;;;4.90;99.90;;;;;;5101682;28;20045;-76
2023/03/08 00:15:39;;;;;;;0.00;0.00;;;4.80;99.90;;;;;;5098713;28;20035;-76
2023/03/08 00:18:05;;;;;;;0.10;0.10;;;4.80;99.90;;;;;;5097641;28;20091;-76
2023/03/08 00:20:31;;;;;;;0.30;0.30;;;4.70;99.90;;;;;;5100649;28;20132;-76
2023/03/08 00:22:57;;;;;;;0.05;0.05;;;;;;;;;;5101646;28;20028;-76
2023/03/08 00:25:23;;;;;;;0.10;0.10;;;;;;;;;;5082885;28;20033;-78
2023/03/08 00:27:50;;;;;;;7.82;7.22;;;4.70;99.90;;;;;;5103544;28;20032;-76
2023/03/08 00:30:19;;;;;;;0.15;0.15;;;4.80;99.90;;;;;;5072327;28;20036;-76
2023/03/08 00:32:50;;;;;;;0.10;0.10;;;4.70;99.90;;;;;;5088298;27;20545;-76
2023/03/08 00:35:18;;;;;;;0.20;0.20;;;4.70;99.90;;;;;;5109295;28;20031;-75
2023/03/08 00:37:45;;;;;;;0.10;0.10;;;5.20;99.90;;;;;;5107167;28;20558;-77
2023/03/08 00:40:11;;;;;;;0.00;0.00;;;4.70;99.90;;;;;;5112779;28;20052;-77
2023/03/08 00:42:38;;;;;;;0.03;0.03;;;4.70;99.90;;;;;;5116127;28;20047;-76
2023/03/08 00:45:06;;;;;;;0.50;0.50;;;4.70;99.90;;;;;;5116035;28;20027;-76
2023/03/08 00:47:34;;;;;;;11.00;10.43;;;4.70;99.90;;;;;;5096345;28;20027;-77
2023/03/08 00:50:00;;;;;;;0.00;0.00;;;4.70;99.90;;;;;;5116673;28;20030;-76
2023/03/08 00:52:25;;;;;;;0.03;0.03;;;4.70;99.90;;;;;;5118458;28;20027;-76
2023/03/08 00:54:51;;;;;;;0.35;0.35;;;4.70;99.90;;;;;;5112662;28;20510;-76
2023/03/08 00:57:17;;;;;;;0.00;0.00;;;4.40;99.90;;;;;;5104296;28;20027;-76
2023/03/08 00:59:43;;;;;;;0.10;0.10;;;;;;;;;;5104048;28;20050;-76
2023/03/08 01:02:09;;;;;;;0.00;0.00;;;4.60;99.90;;;;;;5103900;28;20042;-75
2023/03/08 01:04:34;;;;;;;0.00;0.00;;;4.70;99.90;;;;;;5104190;28;20020;-76
2023/03/08 01:07:00;;;;;;;0.10;0.10;;;4.60;99.90;;;;;;5106226;28;20062;-76
2023/03/08 01:09:27;;;;;;;73.90;67.88;;;4.60;99.90;;;;;;5105227;28;20015;-76
2023/03/08 01:11:53;;;;;;;0.10;0.10;;;4.60;99.90;;;;;;5103627;28;20024;-76
2023/03/08 01:14:19;;;;;;;0.40;0.40;;;;;;;;;;5105629;28;20320;-76
2023/03/08 01:16:45;;;;;;;0.00;0.00;;;4.60;99.90;;;;;;5111613;28;20016;-76
2023/03/08 01:19:11;;;;;;;0.05;0.05;;;4.70;99.90;;;;;;5106414;28;20019;-77
2023/03/08 01:21:37;;;;;;;0.00;0.00;;;4.70;99.90;;;;;;5106925;28;20099;-77
2023/03/08 01:24:03;;;;;;;0.00;0.00;;;4.70;99.90;;;;;;5108986;28;20041;-77
2023/03/08 01:26:28;;;;;;;0.47;0.47;;;4.60;99.90;;;;;;5085732;28;20407;-76
2023/03/08 01:28:55;;;;;;;0.00;0.00;;;4.80;99.90;;;;;;5088374;28;20057;-76
2023/03/08 01:31:27;;;;;;;1.40;1.38;;;4.80;99.90;;;;;;5104255;28;20024;-77
2023/03/08 01:33:54;;;;;;;0.00;0.00;;;4.80;99.90;;;;;;5102336;28;20043;-76
2023/03/08 01:36:22;;;;;;;0.10;0.10;;;4.80;99.90;;;;;;5104223;28;20111;-76
2023/03/08 01:38:49;;;;;;;0.10;0.10;;;;;;;;;;5086978;28;20027;-76
2023/03/08 01:41:24;;;;;;;0.10;0.10;;;4.80;99.90;;;;;;5106420;28;20292;-76
2023/03/08 01:43:51;;;;;;;1.20;1.13;;;4.80;99.90;;;;;;5107523;28;20096;-77
2023/03/08 01:46:34;;;;;;;0.10;0.10;;;5.10;99.90;;;;;;5110495;28;20081;-77
2023/03/08 01:49:20;;;;;;;0.10;0.10;;;4.80;99.90;;;;;;5105400;28;20107;-76
2023/03/08 01:52:05;;;;;;;0.25;0.25;;;4.90;99.90;;;;;;5109069;28;20434;-77
2023/03/08 01:54:45;;;;;;;0.00;0.00;;;4.80;99.90;;;;;;5094036;28;20027;-77
2023/03/08 01:57:37;;;;;;;0.05;0.05;;;4.80;99.90;;;;;;5105516;28;20035;-77
2023/03/08 02:00:13;;;;;;;0.00;0.00;;;4.80;99.90;;;;;;5107937;28;20028;-74
2023/03/08 02:02:53;;;;;;;0.10;0.10;;;4.90;99.90;;;;;;5106163;28;20036;-77
2023/03/08 02:05:19;;;;;;;1.20;1.20;;;4.90;99.90;;;;;;5109789;28;20224;-77
2023/03/08 02:07:45;;;;;;;0.20;0.20;;;4.90;99.90;;;;;;5111796;28;20126;-77
2023/03/08 02:10:13;;;;;;;6.43;6.13;;;4.60;99.90;;;;;;5112878;28;20035;-76
2023/03/08 02:12:39;;;;;;;0.03;0.03;;;4.90;99.90;;;;;;5113124;28;20042;-77
2023/03/08 02:15:09;;;;;;;0.75;0.75;;;4.90;99.90;;;;;;5109670;28;20044;-76
2023/03/08 02:17:38;;;;;;;0.10;0.10;;;4.80;99.90;;;;;;5091760;28;20055;-77
2023/03/08 02:20:14;;;;;;;0.10;0.10;;;4.80;99.90;;;;;;5110077;28;20026;-77
2023/03/08 02:22:42;;;;;;;0.38;0.38;;;4.90;99.90;;;;;;5107609;28;20023;-75
2023/03/08 02:25:17;;;;;;;0.10;0.10;;;4.80;99.90;;;;;;5104631;28;20110;-75
2023/03/08 02:27:43;;;;;;;0.00;0.00;;;4.80;99.90;;;;;;5107893;28;20019;-74
2023/03/08 02:30:13;;;;;;;0.20;0.20;;;4.80;99.90;;;;;;5090623;28;20228;-74
2023/03/08 02:32:39;;;;;;;0.10;0.10;;;4.80;99.90;;;;;;5108798;28;20419;-75
2023/03/08 02:35:06;;;;;;;0.95;0.95;;;6.40;99.90;;;;;;5086908;28;20332;-75
2023/03/08 02:37:35;;;;;;;0.00;0.00;;;4.80;99.90;;;;;;5109032;28;20292;-74
2023/03/08 02:40:01;;;;;;;0.20;0.20;;;4.70;99.90;;;;;;5108151;28;20306;-75
2023/03/08 02:42:27;;;;;;;0.10;0.10;;;4.90;99.90;;;;;;5108983;28;20023;-77
2023/03/08 02:44:52;;;;;;;0.08;0.08;;;4.90;99.90;;;;;;5104633;28;20091;-74
2023/03/08 02:47:18;;;;;;;0.10;0.10;;;3.80;99.90;;;;;;5106851;28;20486;-74
2023/03/08 02:49:44;;;;;;;0.00;0.00;;;5.00;99.90;;;;;;5108627;28;20016;-74
2023/03/08 02:52:09;;;;;;;0.00;0.00;;;6.20;99.90;;;;;;5103243;28;20027;-74
2023/03/08 02:54:36;;;;;;;0.10;0.10;;;5.00;99.90;;;;;;5107499;28;20034;-75
2023/03/08 02:57:01;;;;;;;0.00;0.00;;;5.10;99.90;;;;;;5107541;28;20047;-75
2023/03/08 02:59:27;;;;;;;0.55;0.55;;;5.10;99.90;;;;;;5108269;28;20507;-74
2023/03/08 03:01:54;;;;;;;0.10;0.10;;;5.20;99.90;;;;;;5111549;28;20091;-74
2023/03/08 03:04:20;;;;;;;0.00;0.00;;;;;;;;;;5092626;28;20027;-74
2023/03/08 03:06:46;;;;;;;0.20;0.20;;;5.20;99.90;;;;;;5112028;28;20051;-75
2023/03/08 03:09:13;;;;;;;0.10;0.10;;;5.30;99.90;;;;;;5087726;28;20509;-74
2023/03/08 03:11:39;;;;;;;0.00;0.00;;;5.40;99.90;;;;;;5091465;28;20051;-75
2023/03/08 03:14:06;;;;;;;1.00;1.00;;;5.40;99.90;;;;;;5105198;28;20019;-74
2023/03/08 03:16:32;;;;;;;0.10;0.10;;;5.40;99.90;;;;;;5101651;28;20181;-75
2023/03/08 03:18:59;;;;;;;0.00;0.00;;;5.40;99.90;;;;;;5110859;28;20038;-75
2023/03/08 03:21:25;;;;;;;0.10;0.10;;;5.50;99.90;;;;;;5112610;28;20034;-74
2023/03/08 03:23:54;;;;;;;0.10;0.10;;;5.50;99.90;;;;;;5103871;28;20082;-77
2023/03/08 03:26:22;;;;;;;0.10;0.10;;;5.50;99.90;;;;;;5108393;28;20030;-74
2023/03/08 03:28:48;;;;;;;0.00;0.00;;;5.50;99.90;;;;;;5106504;28;20088;-75
2023/03/08 03:31:22;;;;;;;0.10;0.10;;;8.60;99.90;;;;;;5111740;28;20032;-76
2023/03/08 03:33:49;;;;;;;0.00;0.00;;;5.50;99.90;;;;;;5105676;28;20093;-76
2023/03/08 03:36:17;;;;;;;0.10;0.10;;;5.60;99.90;;;;;;5099654;28;20035;-77
2023/03/08 03:38:43;;;;;;;0.00;0.00;;;5.60;99.90;;;;;;5100573;28;20050;-76
2023/03/08 03:41:13;;;;;;;0.00;0.00;;;5.50;99.90;;;;;;5099179;28;20047;-75
2023/03/08 03:43:40;;;;;;;0.00;0.00;;;5.50;99.90;;;;;;5097245;28;20051;-76
2023/03/08 03:46:09;;;;;;;0.00;0.00;;;5.50;99.90;;;;;;5099777;28;20028;-76
2023/03/08 03:48:36;;;;;;;0.10;0.10;;;5.50;99.90;;;;;;5084979;28;20024;-76
2023/03/08 03:51:10;;;;;;;0.05;0.05;;;5.50;99.90;;;;;;5102468;28;20300;-77
2023/03/08 03:53:36;;;;;;;0.10;0.10;;;;;;;;;;5099616;28;20020;-73
2023/03/08 03:56:09;;;;;;;0.00;0.00;;;5.60;99.90;;;;;;5101099;28;20099;-76
2023/03/08 03:58:35;;;;;;;0.00;0.00;;;5.60;99.90;;;;;;5099938;28;20471;-75
2023/03/08 04:01:08;;;;;;;0.00;0.00;;;5.70;99.90;;;;;;5101312;28;20220;-74
2023/03/08 04:03:34;;;;;;;0.00;0.00;;;5.70;99.90;;;;;;5102852;28;20236;-76
2023/03/08 04:06:07;;;;;;;0.10;0.10;;;5.70;99.90;;;;;;5106002;28;20040;-77
2023/03/08 04:08:33;;;;;;;0.00;0.00;;;5.80;99.90;;;;;;5103694;28;20084;-76
2023/03/08 04:11:01;;;;;;;0.03;0.03;;;5.80;99.90;;;;;;5102589;28;20031;-76
2023/03/08 04:13:28;;;;;;;0.00;0.00;;;5.90;99.90;;;;;;5103795;28;20273;-76
2023/03/08 04:15:54;;;;;;;0.08;0.08;;;6.00;99.90;;;;;;5106743;28;20059;-76
2023/03/08 04:18:20;;;;;;;0.00;0.00;;;6.00;99.90;;;;;;5103132;28;20595;-76
2023/03/08 04:20:46;;;;;;;0.00;0.00;;;6.00;99.90;;;;;;5108619;28;20622;-75
2023/03/08 04:23:11;;;;;;;0.10;0.10;;;6.00;99.90;;;;;;5109290;28;20668;-76
2023/03/08 04:25:37;;;;;;;0.00;0.00;;;6.00;99.90;;;;;;5110676;28;20316;-76
2023/03/08 04:28:04;;;;;;;0.00;0.00;;;6.00;99.90;;;;;;5110908;28;20031;-76
2023/03/08 04:30:30;;;;;;;6.32;2.10;;;6.00;99.90;;;;;;5115067;28;20034;-76
2023/03/08 04:32:56;;;;;;;0.10;0.10;;;5.90;99.90;;;;;;5114709;28;20416;-76
2023/03/08 04:35:22;;;;;;;0.00;0.00;;;5.90;99.90;;;;;;5106115;28;20133;-75
2023/03/08 04:37:50;;;;;;;0.00;0.00;;;5.90;99.90;;;;;;5102322;28;20036;-75
2023/03/08 04:40:16;;;;;;;0.00;0.00;;;5.90;99.90;;;;;;5102483;28;20033;-76
2023/03/08 04:42:43;;;;;;;0.00;0.00;;;5.90;99.90;;;;;;5102248;28;20182;-75
2023/03/08 04:45:10;;;;;;;0.00;0.00;;;5.90;99.90;;;;;;5102491;28;20026;-75
2023/03/08 04:47:36;;;;;;;0.25;0.25;;;5.90;99.90;;;;;;5102752;28;20020;-75
2023/03/08 04:50:02;;;;;;;0.00;0.00;;;;;;;;;;5108641;28;20133;-75
2023/03/08 04:52:28;;;;;;;0.00;0.00;;;5.90;99.90;;;;;;5104429;28;20031;-75
2023/03/08 04:54:54;;;;;;;0.05;0.05;;;;;;;;;;5103202;28;20016;-75
2023/03/08 04:57:20;;;;;;;0.00;0.00;;;;;;;;;;5104230;28;20308;-75
2023/03/08 04:59:46;;;;;;;0.05;0.05;;;5.80;99.90;;;;;;5103720;28;20079;-76
2023/03/08 05:02:12;;;;;;;0.30;0.30;;;6.10;99.90;;;;;;5102019;28;20103;-75
2023/03/08 05:04:38;;;;;;;0.05;0.05;;;;;;;;;;5106390;28;20024;-75
2023/03/08 05:07:04;;;;;;;0.00;0.00;;;5.70;99.90;;;;;;5110453;28;20123;-76
2023/03/08 05:09:30;;;;;;;0.28;0.28;;;5.60;99.90;;;;;;5113318;28;20058;-75
2023/03/08 05:11:57;;;;;;;0.00;0.00;;;5.60;99.90;;;;;;5112630;28;20036;-75
2023/03/08 05:14:23;;;;;;;0.00;0.00;;;5.60;99.90;;;;;;5111578;28;20020;-76
2023/03/08 05:16:48;;;;;;;0.10;0.10;;;5.50;99.90;;;;;;5112066;28;20077;-76
2023/03/08 05:19:14;;;;;;;0.13;0.13;;;5.50;99.90;;;;;;5113367;28;20034;-76
2023/03/08 05:21:40;;;;;;;0.00;0.00;;;5.40;99.90;;;;;;5113385;28;20573;-76
2023/03/08 05:24:06;;;;;;;0.00;0.00;;;6.30;99.90;;;;;;5106500;28;20036;-75
2023/03/08 05:26:32;;;;;;;0.10;0.10;;;5.30;99.90;;;;;;5110749;28;20095;-75
2023/03/08 05:29:05;;;;;;;0.00;0.00;;;5.30;99.90;;;;;;5106606;28;20046;-75
2023/03/08 05:31:32;;;;;;;0.63;0.63;;;5.30;99.90;;;;;;5110569;28;20516;-76
2023/03/08 05:33:59;;;;;;;0.10;0.10;;;7.00;99.90;;;;;;5108325;28;20035;-75
2023/03/08 05:36:24;;;;;;;0.10;0.10;;;5.40;99.90;;;;;;5115428;28;20394;-76
2023/03/08 05:38:53;;;;;;;0.00;0.00;;;5.40;99.90;;;;;;5115526;28;20027;-76
2023/03/08 05:41:19;;;;;;;0.10;0.10;;;5.40;99.90;;;;;;5113679;28;20023;-76
2023/03/08 05:43:46;;;;;;;0.00;0.00;;;5.40;99.90;;;;;;5095408;28;20038;-75
2023/03/08 05:46:16;;;;;;;0.00;0.00;;;5.50;99.90;;;;;;5108499;28;20015;-75
2023/03/08 05:48:43;;;;;;;0.10;0.10;;;5.60;99.90;;;;;;5111995;28;20055;-76
2023/03/08 05:51:14;;;;;;;0.03;0.03;;;5.70;99.90;;;;;;5113404;28;20490;-76
2023/03/08 05:53:49;;;;;;;0.10;0.10;;;5.60;99.90;;;;;;5105077;28;20038;-76
2023/03/08 05:56:17;;;;;;;0.00;0.00;;;6.00;99.90;;;;;;5110937;28;20023;-74
2023/03/08 05:58:43;;;;;;;0.05;0.05;;;6.10;99.90;;;;;;5115547;28;20026;-76
2023/03/08 06:01:16;;;;;;;0.00;0.00;;;6.20;99.90;;;;;;5114678;28;20023;-75
2023/03/08 06:03:43;;;;;;;0.00;0.00;;;6.40;99.90;;;;;;5113243;28;20032;-75
2023/03/08 06:06:09;;;;;;;0.00;0.00;;;6.40;99.90;;;;;;5112863;28;20035;-76
2023/03/08 06:08:35;;;;;;;0.10;0.10;;;6.50;99.90;;;;;;5110293;28;20023;-75
2023/03/08 06:11:01;;;;;;;0.05;0.05;;;6.30;99.90;;;;;;5110229;28;20016;-76
2023/03/08 06:13:28;;;;;;;0.00;0.00;;;6.70;99.90;;;;;;5112750;28;20540;-76
2023/03/08 06:15:55;;;;;;;0.10;0.10;;;6.80;99.90;;;;;;5109727;28;20237;-76
2023/03/08 06:18:22;;;;;;;0.10;0.10;;;6.90;99.90;;;;;;5106650;28;20062;-76
2023/03/08 06:21:00;;;;;;;0.08;0.08;;;7.00;99.90;;;;;;5102477;28;20087;-76
2023/03/08 06:23:27;;;;;;;0.00;0.00;;;7.10;99.90;;;;;;5107282;28;20031;-76
2023/03/08 06:25:54;;;;;;;6.40;3.30;;;7.10;99.90;;;;;;5102845;28;20055;-76
2023/03/08 06:28:20;;;;;;;0.00;0.00;;;7.20;99.90;;;;;;5104847;28;20134;-75
2023/03/08 06:30:53;;;;;;;0.00;0.00;;;7.20;99.90;;;;;;5109602;28;20242;-76
2023/03/08 06:33:22;;;;;;;0.10;0.10;;;7.40;99.90;;;;;;5110130;28;20016;-75
2023/03/08 06:36:16;;;;;;;0.00;0.00;;;7.50;99.90;;;;;;5107844;28;20432;-75
2023/03/08 06:38:42;;;;;;;1.90;1.83;;;7.80;99.90;;;;;;5081778;28;20036;-75
2023/03/08 06:41:10;;;;;;;0.00;0.00;;;7.90;99.90;;;;;;5102646;28;20911;-75
2023/03/08 06:43:36;;;;;;;0.10;0.10;;;8.00;99.90;;;;;;5105187;28;20115;-76
2023/03/08 06:46:10;;;;;;;0.30;0.30;;;8.20;99.90;;;;;;5086435;28;20433;-75
2023/03/08 06:48:36;;;;;;;0.10;0.10;;;6.90;99.90;;;;;;5103491;28;20364;-76
2023/03/08 06:51:04;;;;;;;0.03;0.03;;;8.50;99.90;;;;;;5084686;28;20016;-76
2023/03/08 06:53:29;;;;;;;0.00;0.00;;;8.60;99.90;;;;;;5088679;28;20390;-75
2023/03/08 06:56:01;;;;;;;0.10;0.10;;;9.00;99.90;;;;;;5105204;28;20020;-75
2023/03/08 06:58:28;;;;;;;0.10;0.10;;;9.10;99.90;;;;;;5107311;28;20024;-76
2023/03/08 07:01:05;;;;;;;0.10;0.10;;;9.60;99.90;;;;;;5106239;28;20027;-75
2023/03/08 07:03:34;;;;;;;0.10;0.10;;;9.50;99.90;;;;;;5107776;28;20109;-76
2023/03/08 07:06:01;;;;;;;0.00;0.00;;;9.80;99.90;;;;;;5104998;28;20055;-76
2023/03/08 07:08:27;;;;;;;0.65;0.65;;;10.00;99.90;;;;;;5107993;28;20031;-76
2023/03/08 07:10:53;;;;;;;0.10;0.10;;;;;;;;;;5108102;28;20102;-76
2023/03/08 07:13:22;;;;;;;0.10;0.10;;;10.10;99.90;;;;;;5108462;28;20249;-75
2023/03/08 07:15:49;;;;;;;0.10;0.10;;;10.30;99.90;;;;;;5107638;28;20052;-76
2023/03/08 07:18:15;;;;;;;0.10;0.10;;;10.40;99.90;;;;;;5108951;28;20027;-75
2023/03/08 07:20:48;;;;;;;0.10;0.10;;;10.60;99.90;;;;;;5109715;28;20031;-76
2023/03/08 07:23:14;;;;;;;0.20;0.20;;;10.80;99.90;;;;;;5104736;28;20027;-75
2023/03/08 07:25:40;;;;;;;0.15;0.15;;;11.00;99.90;;;;;;5110832;28;20022;-76
2023/03/08 07:28:05;;;;;;;0.20;0.20;;;11.20;98.90;;;;;;5108594;28;20027;-75
2023/03/08 07:30:31;;;;;;;0.20;0.20;;;11.40;96.10;;;;;;5107915;28;20028;-76
2023/03/08 07:32:57;;;;;;;0.20;0.20;;;11.50;96.70;;;;;;5108821;28;20016;-76
2023/03/08 07:35:25;;;;;;;0.20;0.20;;;11.50;95.30;;;;;;5108770;28;20422;-76
2023/03/08 07:37:54;;;;;;;0.20;0.20;;;11.40;95.50;;;;;;5107037;28;20113;-76
2023/03/08 07:40:20;;;;;;;0.20;0.20;;;11.20;95.50;;;;;;5090029;28;20023;-75
2023/03/08 07:42:46;;;;;;;0.20;0.20;;;;;;;;;;5108661;28;20371;-76
2023/03/08 07:45:13;;;;;;;0.20;0.20;;;11.20;94.90;;;;;;5107606;28;20402;-76
2023/03/08 07:47:41;;;;;;;0.20;0.20;;;;;;;;;;5108341;28;20189;-75
2023/03/08 07:50:08;;;;;;;0.13;0.13;;;11.10;93.60;;;;;;5107946;28;20160;-76
2023/03/08 07:52:34;;;;;;;0.10;0.10;;;11.40;96.30;;;;;;5089190;28;20043;-77
2023/03/08 07:55:01;;;;;;;0.20;0.20;;;11.20;96.00;;;;;;5107962;28;20024;-76
2023/03/08 07:57:27;;;;;;;0.17;0.17;;;11.40;94.70;;;;;;5108572;28;20216;-76
2023/03/08 07:59:53;;;;;;;0.10;0.10;;;11.40;93.30;;;;;;5109889;28;20531;-75
2023/03/08 08:02:19;;;;;;;0.20;0.20;;;11.40;93.90;;;;;;5108616;28;20024;-76
2023/03/08 08:04:47;;;;;;;0.20;0.20;;;11.50;92.60;;;;;;5108062;28;20023;-76
2023/03/08 08:07:16;;;;;;;0.28;0.28;;;10.20;93.00;;;;;;5109218;28;20062;-76
2023/03/08 08:09:42;;;;;;;11.82;10.85;;;11.60;95.40;;;;;;5112127;28;20038;-76
2023/03/08 08:12:08;;;;;;;0.30;0.30;;;;;;;;;;5118753;28;20012;-77
2023/03/08 08:14:35;;;;;;;0.20;0.20;;;11.60;95.00;;;;;;5107757;28;20027;-76
2023/03/08 08:17:04;;;;;;;0.20;0.20;;;11.80;94.70;;;;;;5116806;28;20063;-77
2023/03/08 08:19:32;;;;;;;0.10;0.10;;;12.60;91.80;;;;;;5112510;28;20453;-76
2023/03/08 08:21:58;;;;;;;0.20;0.20;;;12.30;91.40;;;;;;5089575;28;20016;-76
2023/03/08 08:24:25;;;;;;;0.20;0.20;;;12.40;91.90;;;;;;5106632;28;20056;-76
2023/03/08 08:26:51;;;;;;;0.20;0.20;;;12.40;87.80;;;;;;5106676;28;20212;-75
2023/03/08 08:29:17;;;;;;;0.20;0.20;;;12.50;88.50;;;;;;5105094;28;20026;-78
2023/03/08 08:31:45;;;;;;;0.17;0.17;;;12.30;89.10;;;;;;5105447;28;20034;-76
2023/03/08 08:34:11;;;;;;;0.20;0.20;;;12.80;89.50;;;;;;5105744;28;20478;-77
2023/03/08 08:36:37;;;;;;;0.20;0.20;;;12.70;90.60;;;;;;5110991;28;20018;-75
2023/03/08 08:39:03;;;;;;;0.20;0.20;;;10.80;90.20;;;;;;5107515;28;20100;-75
2023/03/08 08:41:31;;;;;;;0.20;0.20;;;12.40;89.70;;;;;;5105886;28;20173;-76
2023/03/08 08:43:59;;;;;;;0.20;0.20;;;12.30;89.80;;;;;;5105079;28;20027;-76
2023/03/08 08:46:26;;;;;;;0.20;0.20;;;11.50;88.50;;;;;;5107525;28;20555;-76
2023/03/08 08:48:53;;;;;;;0.20;0.20;;;12.40;90.60;;;;;;5104702;28;20093;-76
2023/03/08 08:51:19;;;;;;;0.20;0.20;;;10.20;89.50;;;;;;5106249;28;20022;-76
2023/03/08 08:53:45;;;;;;;0.10;0.10;;;12.30;91.20;;;;;;5071498;28;20024;-79
2023/03/08 08:56:17;;;;;;;0.10;0.10;;;12.40;91.60;;;;;;5103256;28;20551;-76
2023/03/08 08:58:45;;;;;;;0.10;0.10;;;12.60;90.00;;;;;;5104811;28;20669;-78
2023/03/08 09:01:18;;;;;;;0.20;0.20;;;12.90;90.80;;;;;;5102882;28;20011;-75
2023/03/08 09:03:45;;;;;;;0.15;0.15;;;12.80;90.60;;;;;;5101591;28;20448;-76
2023/03/08 09:06:11;;;;;;;0.10;0.10;;;12.90;92.60;;;;;;5100974;28;20031;-76
2023/03/08 09:08:37;;;;;;;0.20;0.20;;;13.00;90.60;;;;;;5082253;28;20117;-76
2023/03/08 09:11:08;;;;;;;0.20;0.20;;;13.60;91.40;;;;;;5102003;28;20081;-76
2023/03/08 09:13:40;;;;;;;0.20;0.20;;;12.90;90.00;;;;;;5086038;28;20042;-77
2023/03/08 09:16:15;;;;;;;0.20;0.20;;;12.80;90.80;;;;;;5104885;28;20020;-80
2023/03/08 09:18:41;;;;;;;0.10;0.10;;;12.90;91.50;;;;;;5100454;28;20035;-76
2023/03/08 09:21:07;;;;;;;0.20;0.20;;;13.00;89.80;;;;;;5100325;28;20232;-79
2023/03/08 09:23:32;;;;;;;0.20;0.20;;;13.60;89.90;;;;;;5082068;28;20046;-77
2023/03/08 09:25:58;;;;;;;0.17;0.17;;;13.20;86.80;;;;;;5100797;28;20348;-76
2023/03/08 09:28:24;;;;;;;0.20;0.20;;;13.30;86.90;;;;;;5101639;28;20133;-78
2023/03/08 09:30:50;;;;;;;1.27;1.27;;;13.30;86.10;;;;;;5102226;28;20574;-75
2023/03/08 09:33:16;;;;;;;0.20;0.20;;;13.80;85.60;;;;;;5082295;28;20028;-77
2023/03/08 09:35:42;;;;;;;0.20;0.20;;;13.50;88.00;;;;;;5081526;28;20506;-76
2023/03/08 09:38:07;;;;;;;0.20;0.20;;;13.40;83.00;;;;;;5099916;28;20083;-76
2023/03/08 09:40:43;;;;;;;0.20;0.20;;;13.30;85.00;;;;;;5098276;28;20660;-76
2023/03/08 09:43:23;;;;;;;0.20;0.20;;;13.40;82.90;;;;;;5099630;28;20720;-77
2023/03/08 09:45:53;;;;;;;0.20;0.20;;;13.60;83.40;;;;;;5099809;28;20012;-77
2023/03/08 09:48:28;;;;;;;0.30;0.30;;;14.00;82.80;;;;;;5100023;28;20344;-76
2023/03/08 09:50:58;;;;;;;0.82;0.82;;;13.30;81.70;;;;;;5099856;28;20016;-77
2023/03/08 09:53:31;;;;;;;0.10;0.10;;;13.90;80.50;;;;;;5081257;28;20039;-77
2023/03/08 09:56:03;;;;;;;0.20;0.20;;;14.00;79.90;;;;;;5098065;28;20027;-83
2023/03/08 09:58:56;;;;;;;0.20;0.20;;;14.00;77.70;;;;;;5099123;28;20034;-76
2023/03/08 10:01:32;;;;;;;0.20;0.20;;;14.90;76.70;;;;;;5098977;28;20028;-77
2023/03/08 10:04:28;;;;;;;0.10;0.10;;;14.40;75.90;;;;;;5099086;28;20290;-81
2023/03/08 10:07:22;;;;;;;0.20;0.20;;;14.60;74.50;;;;;;5097477;28;20050;-76
2023/03/08 10:10:11;;;;;;;1.00;1.00;;;14.50;73.30;;;;;;5099124;28;20020;-85
2023/03/08 10:13:06;;;;;;;0.20;0.20;;;14.80;72.90;;;;;;5098736;28;20580;-76
2023/03/08 10:15:38;;;;;;;0.10;0.10;;;14.80;71.70;;;;;;5098775;28;20257;-76
2023/03/08 10:18:14;;;;;;;;;;;14.90;71.40;;;;;;5098931;28;20051;-77
2023/03/08 10:20:41;;;;;;;0.10;0.10;;;14.70;70.70;;;;;;5098615;28;20406;-74
2023/03/08 10:23:16;;;;;;;0.43;0.43;;;15.00;71.60;;;;;;5098485;28;20031;-78
2023/03/08 10:25:44;;;;;;;0.20;0.20;;;16.20;71.70;;;;;;5098525;28;20020;-77
2023/03/08 10:28:20;;;;;;;0.20;0.20;;;14.50;72.00;;;;;;5098354;28;20361;-80
2023/03/08 10:30:56;;;;;;;0.17;0.17;;;14.30;74.10;;;;;;5098605;28;20213;-79
2023/03/08 10:33:23;;;;;;;0.20;0.20;;;14.00;74.60;;;;;;5098198;28;20020;-77
2023/03/08 10:35:55;;;;;;;0.10;0.10;;;13.80;76.70;;;;;;5098989;28;20788;-77
2023/03/08 10:38:23;;;;;;;0.20;0.20;;;13.80;77.90;;;;;;5099082;28;20227;-77
2023/03/08 10:40:57;;;;;;;0.20;0.20;;;13.40;78.80;;;;;;5099354;28;20023;-78
2023/03/08 10:43:40;;;;;;;0.20;0.20;;;13.90;78.70;;;;;;5098667;28;20534;-77
2023/03/08 10:46:13;;;;;;;0.10;0.10;;;14.10;75.80;;;;;;5098246;28;20156;-77
2023/03/08 10:48:39;;;;;;;0.10;0.10;;;;;;;;;;5098367;28;20609;-76
2023/03/08 10:51:14;;;;;;;0.20;0.20;;;15.40;76.90;;;;;;5079772;28;20024;-77
2023/03/08 10:53:40;;;;;;;0.20;0.20;;;;;;;;;;5098053;28;20080;-77
2023/03/08 10:56:23;;;;;;;0.10;0.10;;;14.20;76.20;;;;;;5097871;28;20080;-76
2023/03/08 10:58:52;;;;;;;0.10;0.10;;;13.80;78.00;;;;;;5098302;28;20023;-80
2023/03/08 11:01:27;;;;;;;0.20;0.20;;;14.10;78.30;;;;;;5079940;28;20296;-77
2023/03/08 11:04:12;;;;;;;0.10;0.10;;;14.20;81.00;;;;;;5097784;28;20024;-78
2023/03/08 11:06:38;;;;;;;0.20;0.20;;;14.20;80.20;;;;;;5097995;28;20115;-77
2023/03/08 11:09:19;;;;;;;0.20;0.20;;;15.10;75.40;;;;;;5097781;28;20330;-77
2023/03/08 11:11:45;;;;;;;0.20;0.20;;;15.20;76.50;;;;;;5097420;28;20027;-77
2023/03/08 11:14:11;;;;;;;0.10;0.10;;;;;;;;;;5098213;28;20023;-76
2023/03/08 11:16:40;;;;;;;0.15;0.15;;;15.40;71.00;;;;;;5097446;28;20479;-76
2023/03/08 11:19:35;;;;;;;0.15;0.15;;;16.10;71.90;;;;;;5097754;28;20032;-79
2023/03/08 11:22:18;;;;;;;0.20;0.20;;;15.20;71.80;;;;;;5098061;28;20149;-77
2023/03/08 11:25:16;;;;;;;0.10;0.10;;;14.60;74.20;;;;;;5097856;28;20027;-80
2023/03/08 11:28:21;;;;;;;0.20;0.20;;;14.80;74.70;;;;;;5097621;28;20024;-87
2023/03/08 11:30:58;;;;;;;0.20;0.20;;;14.50;75.80;;;;;;5082577;28;20095;-80
2023/03/08 11:33:30;;;;;;;0.68;0.68;;;14.60;76.70;;;;;;5097733;28;20084;-76
2023/03/08 11:36:11;;;;;;;0.10;0.10;;;14.60;75.00;;;;;;5096250;28;20422;-76
2023/03/08 11:38:37;;;;;;;0.15;0.15;;;14.40;76.40;;;;;;5097784;28;20023;-76
2023/03/08 11:41:35;;;;;;;0.10;0.10;;;14.50;77.40;;;;;;5097474;28;20028;-77
2023/03/08 11:44:23;;;;;;;0.20;0.20;;;14.20;76.70;;;;;;5079205;28;20096;-75
2023/03/08 11:47:32;;;;;;;0.10;0.10;;;13.90;78.70;;;;;;5097013;28;20699;-75
2023/03/08 11:50:25;;;;;;;0.20;0.20;;;14.10;79.20;;;;;;5097478;28;20331;-76
2023/03/08 11:53:19;;;;;;;0.20;0.20;;;14.50;79.00;;;;;;5097443;28;20035;-78
2023/03/08 11:56:05;;;;;;;0.10;0.10;;;14.10;78.80;;;;;;5097916;28;20020;-75
2023/03/08 11:58:52;;;;;;;0.15;0.15;;;14.20;79.30;;;;;;5097633;28;20024;-79
2023/03/08 12:01:23;;;;;;;0.20;0.20;;;14.20;80.10;;;;;;5097477;28;20031;-75
2023/03/08 12:03:52;;;;;;;1.10;1.10;;;14.10;80.90;;;;;;5097780;28;20036;-75
2023/03/08 12:06:39;;;;;;;0.30;0.30;;;13.90;80.80;;;;;;5097236;28;20035;-75
2023/03/08 12:09:29;;;;;;;0.20;0.20;;;13.90;81.30;;;;;;5095560;28;20380;-75
2023/03/08 12:12:07;;;;;;;0.20;0.20;;;14.30;78.70;;;;;;5078799;28;20424;-75
2023/03/08 12:14:38;;;;;;;0.10;0.10;;;14.50;78.10;;;;;;5097563;28;20016;-75
2023/03/08 12:17:24;;;;;;;0.65;0.65;;;14.50;79.10;;;;;;5078332;28;20105;-77
2023/03/08 12:19:50;;;;;;;0.10;0.10;;;14.60;78.30;;;;;;5095476;28;20031;-74
2023/03/08 12:22:29;;;;;;;0.10;0.10;;;14.30;76.70;;;;;;5096838;28;20521;-76
2023/03/08 12:25:17;;;;;;;0.20;0.20;;;14.30;77.10;;;;;;5101424;28;20015;-78
2023/03/08 12:27:54;;;;;;;0.20;0.20;;;14.10;78.80;;;;;;5100946;28;20502;-75
2023/03/08 12:30:33;;;;;;;0.10;0.10;;;14.30;80.80;;;;;;5100977;28;20108;-75
2023/03/08 12:33:02;;;;;;;0.20;0.20;;;14.10;81.20;;;;;;5100648;28;20027;-75
2023/03/08 12:35:32;;;;;;;0.20;0.20;;;13.70;83.40;;;;;;5101123;28;20022;-76
2023/03/08 12:38:16;;;;;;;0.10;0.10;;;13.50;83.40;;;;;;5101100;28;20563;-77
2023/03/08 12:40:46;;;;;;;;;;;13.40;86.80;;;;;;5099663;28;20055;-75
2023/03/08 12:43:13;;;;;;;29.20;5.78;;;13.20;89.00;;;;;;5101176;28;19911;-75
2023/03/08 12:45:44;;;;;;;0.45;0.45;;;13.00;91.00;;;;;;5100007;28;20019;-75
2023/03/08 12:48:22;;;;;;;0.20;0.20;;;12.90;91.50;;;;;;5100995;28;20027;-75
2023/03/08 12:51:00;;;;;;;0.20;0.20;;;12.80;92.00;;;;;;5101563;28;20192;-75
2023/03/08 12:53:44;;;;;;;0.20;0.20;;;12.80;93.10;;;;;;5100990;28;20095;-75
2023/03/08 12:56:10;;;;;;;0.10;0.10;;;12.70;92.90;;;;;;5100674;28;20055;-75
2023/03/08 12:58:58;;;;;;;0.10;0.10;;;12.70;93.40;;;;;;5100581;28;20336;-75
2023/03/08 13:01:23;;;;;;;0.20;0.20;;;12.60;93.30;;;;;;5100241;28;20049;-75
2023/03/08 13:03:49;;;;;;;0.20;0.20;;;12.60;93.80;;;;;;5100749;28;20039;-76
2023/03/08 13:06:49;;;;;;;0.10;0.10;;;12.70;94.40;;;;;;5100127;28;20070;-77
2023/03/08 13:09:35;;;;;;;0.10;0.10;;;12.70;94.30;;;;;;5100576;28;20051;-75
2023/03/08 13:12:15;;;;;;;0.20;0.20;;;12.80;93.90;;;;;;5099739;28;20019;-75
2023/03/08 13:14:43;;;;;;;2.78;2.58;;;12.90;94.20;;;;;;5099757;28;20019;-74